createdAt,value
2022-08-29T00:00:18.531Z,98924.88
2022-08-29T00:02:48.014Z,98928.03
2022-08-29T00:05:15.130Z,98928.03
2022-08-29T00:07:41.587Z,98927.59
2022-08-29T00:10:08.913Z,98932.00
2022-08-29T00:12:36.121Z,98931.13
2022-08-29T00:15:06.402Z,98934.94
2022-08-29T00:17:33.294Z,98931.38
2022-08-29T00:19:59.719Z,98939.44
2022-08-29T00:22:26.348Z,98939.59
2022-08-29T00:24:53.119Z,98941.25
2022-08-29T00:27:19.840Z,98932.09
2022-08-29T00:29:46.582Z,98933.63
2022-08-29T00:32:13.015Z,98929.72
2022-08-29T00:34:43.744Z,98930.19
2022-08-29T00:37:10.363Z,98927.50
2022-08-29T00:39:39.603Z,98932.63
2022-08-29T00:42:06.804Z,98934.75
2022-08-29T00:44:33.358Z,98935.56
2022-08-29T00:47:05.593Z,98935.19
2022-08-29T00:49:44.577Z,98934.78
2022-08-29T00:52:22.876Z,98941.03
2022-08-29T00:54:54.686Z,98944.28
2022-08-29T00:57:22.408Z,98938.72
2022-08-29T00:59:51.070Z,98937.50
2022-08-29T01:02:18.132Z,98947.22
2022-08-29T01:04:44.754Z,98944.38
2022-08-29T01:07:11.589Z,98948.69
2022-08-29T01:09:39.898Z,98941.38
2022-08-29T01:12:10.345Z,98947.22
2022-08-29T01:14:38.763Z,98960.06
2022-08-29T01:17:08.642Z,98952.88
2022-08-29T01:20:04.131Z,98953.09
2022-08-29T01:23:01.124Z,98957.34
2022-08-29T01:25:32.614Z,98961.47
2022-08-29T01:28:14.586Z,98960.66
2022-08-29T01:31:09.378Z,98958.19
2022-08-29T01:33:59.588Z,98967.28
2022-08-29T01:36:34.135Z,98962.50
2022-08-29T01:39:01.140Z,98952.75
2022-08-29T01:41:27.619Z,98959.00
2022-08-29T01:43:56.923Z,98953.63
2022-08-29T01:46:30.634Z,98950.94
2022-08-29T01:48:57.581Z,98944.53
2022-08-29T01:51:24.046Z,98950.72
2022-08-29T01:53:51.154Z,98954.69
2022-08-29T01:56:24.909Z,98954.47
2022-08-29T01:58:52.980Z,98953.81
2022-08-29T02:01:28.202Z,98951.94
2022-08-29T02:03:55.669Z,98949.09
2022-08-29T02:06:22.367Z,98940.03
2022-08-29T02:08:49.095Z,98950.63
2022-08-29T02:11:16.548Z,98951.28
2022-08-29T02:13:46.571Z,98957.03
2022-08-29T02:16:15.595Z,98963.03
2022-08-29T02:18:43.119Z,98961.16
2022-08-29T02:21:11.701Z,98957.25
2022-08-29T02:23:39.738Z,98963.69
2022-08-29T02:26:07.098Z,98959.28
2022-08-29T02:28:35.456Z,98968.34
2022-08-29T02:31:02.773Z,98959.06
2022-08-29T02:33:29.387Z,98962.81
2022-08-29T02:35:58.822Z,98962.41
2022-08-29T02:38:26.509Z,98960.38
2022-08-29T02:40:53.355Z,98953.81
2022-08-29T02:43:20.509Z,98950.72
2022-08-29T02:45:47.654Z,98945.56
2022-08-29T02:48:16.654Z,98951.34
2022-08-29T02:50:45.601Z,98950.50
2022-08-29T02:53:14.875Z,98945.41
2022-08-29T02:55:42.710Z,98952.47
2022-08-29T02:58:09.789Z,98948.16
2022-08-29T03:00:36.721Z,98956.44
2022-08-29T03:03:04.232Z,98950.00
2022-08-29T03:05:33.023Z,98946.88
2022-08-29T03:08:02.097Z,98945.47
2022-08-29T03:10:30.125Z,98946.13
2022-08-29T03:12:57.093Z,98950.28
2022-08-29T03:15:24.113Z,98951.97
2022-08-29T03:17:52.358Z,98949.09
2022-08-29T03:20:20.977Z,98945.84
2022-08-29T03:22:47.929Z,98951.22
2022-08-29T03:25:15.884Z,98947.84
2022-08-29T03:27:44.025Z,98943.09
2022-08-29T03:30:13.066Z,98942.88
2022-08-29T03:32:40.227Z,98939.97
2022-08-29T03:35:10.692Z,98942.47
2022-08-29T03:37:37.960Z,98945.88
2022-08-29T03:40:07.779Z,98956.63
2022-08-29T03:42:35.316Z,98951.94
2022-08-29T03:45:06.893Z,98956.91
2022-08-29T03:47:34.197Z,98961.28
2022-08-29T03:50:02.290Z,98964.19
2022-08-29T03:52:28.854Z,98969.16
2022-08-29T03:54:57.885Z,98964.44
2022-08-29T03:57:26.523Z,98959.88
2022-08-29T03:59:55.998Z,98969.56
2022-08-29T04:02:22.525Z,98970.00
2022-08-29T04:04:48.978Z,98967.13
2022-08-29T04:07:15.502Z,98968.59
2022-08-29T04:09:44.045Z,98968.16
2022-08-29T04:12:12.354Z,98968.41
2022-08-29T04:14:39.558Z,98969.44
2022-08-29T04:17:08.661Z,98972.94
2022-08-29T04:19:35.382Z,98974.44
2022-08-29T04:22:03.518Z,98975.44
2022-08-29T04:24:34.931Z,98979.59
2022-08-29T04:27:04.476Z,98982.81
2022-08-29T04:29:34.460Z,98992.25
2022-08-29T04:32:01.129Z,98991.75
2022-08-29T04:34:29.186Z,98980.53
2022-08-29T04:36:57.772Z,98973.38
2022-08-29T04:39:24.219Z,98980.22
2022-08-29T04:41:50.592Z,98978.03
2022-08-29T04:44:17.217Z,98987.19
2022-08-29T04:46:43.687Z,98985.16
2022-08-29T04:49:10.139Z,98979.63
2022-08-29T04:51:36.692Z,98975.97
2022-08-29T04:54:05.024Z,98977.88
2022-08-29T04:56:31.550Z,98978.13
2022-08-29T04:58:58.224Z,98970.25
2022-08-29T05:01:27.080Z,98976.69
2022-08-29T05:03:53.934Z,98969.75
2022-08-29T05:06:22.498Z,98968.75
2022-08-29T05:08:58.889Z,98970.97
2022-08-29T05:11:30.734Z,98979.13
2022-08-29T05:13:58.966Z,98977.00
2022-08-29T05:16:27.490Z,98981.94
2022-08-29T05:18:54.088Z,98973.53
2022-08-29T05:21:39.595Z,98992.47
2022-08-29T05:24:11.202Z,98995.78
2022-08-29T05:26:43.727Z,98989.34
2022-08-29T05:29:12.110Z,98995.31
2022-08-29T05:31:40.148Z,98987.44
2022-08-29T05:34:32.827Z,98982.94
2022-08-29T05:36:56.446Z,98990.75
2022-08-29T05:39:23.110Z,99000.03
2022-08-29T05:41:49.812Z,98998.47
2022-08-29T05:44:16.470Z,98994.44
2022-08-29T05:46:43.171Z,98995.81
2022-08-29T05:49:09.829Z,98999.09
2022-08-29T05:51:39.667Z,99002.84
2022-08-29T05:54:09.664Z,99003.22
2022-08-29T05:56:36.280Z,99007.72
2022-08-29T05:59:02.752Z,99012.34
2022-08-29T06:01:32.902Z,99010.94
2022-08-29T06:04:00.653Z,99013.53
2022-08-29T06:06:28.909Z,99015.56
2022-08-29T06:08:58.076Z,99009.72
2022-08-29T06:11:27.994Z,99017.16
2022-08-29T06:13:55.264Z,99014.22
2022-08-29T06:16:24.224Z,99012.56
2022-08-29T06:18:52.529Z,99008.75
2022-08-29T06:21:19.357Z,99008.09
2022-08-29T06:23:46.555Z,99003.28
2022-08-29T06:26:14.222Z,99009.88
2022-08-29T06:28:43.109Z,99006.75
2022-08-29T06:31:12.518Z,99009.78
2022-08-29T06:33:39.103Z,99009.22
2022-08-29T06:36:06.986Z,99015.94
2022-08-29T06:38:34.513Z,99011.53
2022-08-29T06:41:09.750Z,99025.66
2022-08-29T06:43:36.588Z,99022.91
2022-08-29T06:46:03.959Z,99021.28
2022-08-29T06:48:30.960Z,99024.09
2022-08-29T06:51:03.318Z,99027.41
2022-08-29T06:53:37.382Z,99017.63
2022-08-29T06:56:05.781Z,99019.84
2022-08-29T06:58:33.789Z,99020.09
2022-08-29T07:01:11.814Z,99024.75
2022-08-29T07:03:40.277Z,99026.88
2022-08-29T07:06:09.904Z,99026.81
2022-08-29T07:08:46.707Z,99020.69
2022-08-29T07:11:30.194Z,99026.09
2022-08-29T07:13:59.574Z,99026.41
2022-08-29T07:16:28.848Z,99024.13
2022-08-29T07:18:55.882Z,99019.53
2022-08-29T07:21:27.129Z,99020.66
2022-08-29T07:23:55.269Z,99027.44
2022-08-29T07:26:32.909Z,99023.53
2022-08-29T07:29:03.187Z,99027.09
2022-08-29T07:31:31.200Z,99027.34
2022-08-29T07:34:02.269Z,99027.84
2022-08-29T07:36:34.014Z,99021.16
2022-08-29T07:39:01.895Z,99022.44
2022-08-29T07:41:29.673Z,99023.47
2022-08-29T07:43:57.290Z,99016.34
2022-08-29T07:46:23.737Z,99011.00
2022-08-29T07:48:50.230Z,99013.47
2022-08-29T07:51:19.142Z,99010.19
2022-08-29T07:53:46.102Z,99006.03
2022-08-29T07:56:16.670Z,99004.97
2022-08-29T07:58:43.418Z,99002.50
2022-08-29T08:01:14.859Z,99005.94
2022-08-29T08:03:49.069Z,99010.66
2022-08-29T08:06:16.796Z,99010.75
2022-08-29T08:08:43.414Z,99010.09
2022-08-29T08:11:09.860Z,99012.94
2022-08-29T08:13:38.759Z,99005.75
2022-08-29T08:16:07.921Z,99014.25
2022-08-29T08:18:36.531Z,99008.94
2022-08-29T08:21:04.253Z,99013.03
2022-08-29T08:23:31.244Z,99011.34
2022-08-29T08:25:57.629Z,99023.66
2022-08-29T08:28:24.622Z,99014.44
2022-08-29T08:30:51.159Z,99012.34
2022-08-29T08:33:17.969Z,99026.69
2022-08-29T08:35:46.953Z,99023.78
2022-08-29T08:38:14.133Z,99018.38
2022-08-29T08:40:51.595Z,99023.53
2022-08-29T08:43:26.691Z,99026.81
2022-08-29T08:45:54.794Z,99023.78
2022-08-29T08:48:24.538Z,99020.25
2022-08-29T08:51:06.131Z,99010.72
2022-08-29T08:53:38.848Z,99014.00
2022-08-29T08:56:16.551Z,99013.38
2022-08-29T08:58:53.952Z,99022.31
2022-08-29T09:01:40.801Z,99013.25
2022-08-29T09:04:32.763Z,99004.09
2022-08-29T09:07:38.299Z,99012.53
2022-08-29T09:10:28.082Z,99001.78
2022-08-29T09:13:25.259Z,98995.88
2022-08-29T09:15:54.862Z,99005.53
2022-08-29T09:18:40.392Z,99011.72
2022-08-29T09:21:39.014Z,99004.19
2022-08-29T09:24:00.148Z,99008.03
2022-08-29T09:26:26.934Z,99005.78
2022-08-29T09:28:54.328Z,99017.38
2022-08-29T09:31:28.361Z,99016.34
2022-08-29T09:34:12.330Z,99007.25
2022-08-29T09:36:48.832Z,99009.00
2022-08-29T09:39:17.485Z,99013.53
2022-08-29T09:41:47.751Z,99012.34
2022-08-29T09:44:21.151Z,99012.56
2022-08-29T09:47:04.540Z,99018.41
2022-08-29T09:49:31.047Z,99017.66
2022-08-29T09:52:11.684Z,99019.38
2022-08-29T09:54:38.654Z,99011.44
2022-08-29T09:57:10.838Z,99015.72
2022-08-29T09:59:45.318Z,99018.69
2022-08-29T10:02:30.274Z,99007.41
2022-08-29T10:05:12.039Z,99010.75
2022-08-29T10:07:51.898Z,99007.91
2022-08-29T10:10:23.859Z,99010.66
2022-08-29T10:13:05.920Z,99005.75
2022-08-29T10:15:51.407Z,98998.66
2022-08-29T10:18:40.908Z,99005.59
2022-08-29T10:21:14.705Z,99009.59
2022-08-29T10:23:53.500Z,99009.50
2022-08-29T10:26:26.799Z,99002.22
2022-08-29T10:29:13.272Z,99009.44
2022-08-29T10:31:54.165Z,99007.47
2022-08-29T10:34:35.231Z,99011.88
2022-08-29T10:37:12.189Z,98998.34
2022-08-29T10:39:58.206Z,99001.88
2022-08-29T10:42:26.907Z,99001.75
2022-08-29T10:45:10.491Z,99009.03
2022-08-29T10:47:42.491Z,99016.03
2022-08-29T10:50:46.089Z,99006.53
2022-08-29T10:53:27.328Z,99022.25
2022-08-29T10:55:57.595Z,99025.13
2022-08-29T10:58:42.627Z,99027.00
2022-08-29T11:01:19.012Z,99019.84
2022-08-29T11:04:18.390Z,99014.13
2022-08-29T11:07:11.040Z,99002.34
2022-08-29T11:10:00.759Z,99004.94
2022-08-29T11:12:45.343Z,99005.44
2022-08-29T11:15:31.672Z,98998.25
2022-08-29T11:18:12.752Z,98996.19
2022-08-29T11:20:55.267Z,98994.84
2022-08-29T11:23:42.445Z,98993.41
2022-08-29T11:26:20.061Z,98977.66
2022-08-29T11:29:07.176Z,98981.38
2022-08-29T11:31:56.025Z,98982.13
2022-08-29T11:34:41.414Z,98977.22
2022-08-29T11:37:42.662Z,98993.69
2022-08-29T11:40:18.172Z,98988.66
2022-08-29T11:42:51.042Z,98986.38
2022-08-29T11:45:29.677Z,98990.88
2022-08-29T11:48:21.497Z,98986.00
2022-08-29T11:50:48.048Z,98972.53
2022-08-29T11:53:30.097Z,98976.91
2022-08-29T11:56:22.409Z,98975.56
2022-08-29T11:58:52.303Z,98972.75
2022-08-29T12:01:24.773Z,98966.88
2022-08-29T12:03:58.395Z,98961.91
2022-08-29T12:06:27.373Z,98973.78
2022-08-29T12:09:04.491Z,98969.06
2022-08-29T12:12:02.906Z,98971.00
2022-08-29T12:14:41.938Z,98968.50
2022-08-29T12:17:51.347Z,98964.53
2022-08-29T12:20:32.283Z,98957.75
2022-08-29T12:23:13.798Z,98965.16
2022-08-29T12:25:40.245Z,98963.63
2022-08-29T12:28:15.815Z,98956.78
2022-08-29T12:30:50.100Z,98952.47
2022-08-29T12:33:42.274Z,98945.31
2022-08-29T12:36:52.365Z,98937.16
2022-08-29T12:39:24.865Z,98944.97
2022-08-29T12:41:58.859Z,98937.69
2022-08-29T12:44:32.429Z,98937.59
2022-08-29T12:47:07.396Z,98937.19
2022-08-29T12:49:49.521Z,98933.41
2022-08-29T12:52:27.036Z,98933.34
2022-08-29T12:54:56.623Z,98921.53
2022-08-29T12:57:34.523Z,98914.53
2022-08-29T13:00:08.808Z,98919.28
2022-08-29T13:02:37.943Z,98926.47
2022-08-29T13:05:20.038Z,98925.53
2022-08-29T13:07:55.497Z,98926.41
2022-08-29T13:10:22.108Z,98911.81
2022-08-29T13:12:49.974Z,98908.25
2022-08-29T13:15:21.668Z,98909.09
2022-08-29T13:17:50.771Z,98900.00
2022-08-29T13:20:39.915Z,98894.81
2022-08-29T13:23:12.241Z,98898.19
2022-08-29T13:26:11.350Z,98888.44
2022-08-29T13:28:46.193Z,98895.94
2022-08-29T13:31:15.717Z,98895.44
2022-08-29T13:33:48.191Z,98898.31
2022-08-29T13:36:41.369Z,98897.97
2022-08-29T13:39:19.944Z,98894.94
2022-08-29T13:41:49.723Z,98890.44
2022-08-29T13:44:26.744Z,98898.06
2022-08-29T13:46:57.968Z,98896.91
2022-08-29T13:49:29.679Z,98899.31
2022-08-29T13:51:59.215Z,98887.53
2022-08-29T13:54:31.777Z,98883.47
2022-08-29T13:57:02.243Z,98892.09
2022-08-29T13:59:34.269Z,98902.53
2022-08-29T14:02:10.113Z,98903.06
2022-08-29T14:04:41.920Z,98903.28
2022-08-29T14:07:30.086Z,98896.38
2022-08-29T14:09:57.037Z,98889.38
2022-08-29T14:12:33.861Z,98892.00
2022-08-29T14:15:08.316Z,98890.34
2022-08-29T14:17:35.797Z,98886.41
2022-08-29T14:20:02.381Z,98887.94
2022-08-29T14:22:29.849Z,98887.22
2022-08-29T14:24:56.697Z,98886.38
2022-08-29T14:27:23.601Z,98871.88
2022-08-29T14:29:50.263Z,98869.81
2022-08-29T14:32:16.810Z,98873.66
2022-08-29T14:34:44.198Z,98867.25
2022-08-29T14:37:20.350Z,98864.63
2022-08-29T14:39:49.657Z,98868.13
2022-08-29T14:42:16.927Z,98871.72
2022-08-29T14:44:44.131Z,98869.78
2022-08-29T14:47:10.616Z,98854.31
2022-08-29T14:49:37.075Z,98853.41
2022-08-29T14:52:04.302Z,98851.09
2022-08-29T14:54:32.496Z,98849.53
2022-08-29T14:56:59.203Z,98851.22
2022-08-29T14:59:25.678Z,98848.34
2022-08-29T15:01:54.861Z,98851.53
2022-08-29T15:04:36.074Z,98838.47
2022-08-29T15:07:09.850Z,98844.28
2022-08-29T15:09:37.514Z,98845.63
2022-08-29T15:12:05.511Z,98853.47
2022-08-29T15:14:32.317Z,98850.31
2022-08-29T15:16:59.001Z,98853.28
2022-08-29T15:22:13.396Z,98836.25
2022-08-29T15:24:40.808Z,98829.91
2022-08-29T15:27:08.353Z,98825.78
2022-08-29T15:29:37.220Z,98824.53
2022-08-29T15:32:04.675Z,98822.19
2022-08-29T15:34:31.470Z,98829.63
2022-08-29T15:36:58.480Z,98819.94
2022-08-29T15:39:26.067Z,98809.50
2022-08-29T15:41:52.906Z,98810.00
2022-08-29T15:44:19.602Z,98811.63
2022-08-29T15:46:50.457Z,98808.31
2022-08-29T15:49:19.432Z,98810.03
2022-08-29T15:51:46.819Z,98806.06
2022-08-29T15:54:14.454Z,98812.88
2022-08-29T15:56:42.562Z,98807.91
2022-08-29T15:59:11.337Z,98809.72
2022-08-29T16:01:41.514Z,98798.88
2022-08-29T16:04:10.719Z,98798.66
2022-08-29T16:06:38.430Z,98801.84
2022-08-29T16:09:14.887Z,98799.47
2022-08-29T16:11:43.031Z,98803.50
2022-08-29T16:14:57.984Z,98803.72
2022-08-29T16:16:59.985Z,98800.16
2022-08-29T16:19:27.217Z,98794.44
2022-08-29T16:21:54.047Z,98790.63
2022-08-29T16:24:20.686Z,98789.09
2022-08-29T16:26:47.571Z,98784.81
2022-08-29T16:29:14.254Z,98784.91
2022-08-29T16:31:40.992Z,98790.69
2022-08-29T16:34:07.427Z,98781.44
2022-08-29T16:36:34.110Z,98780.09
2022-08-29T16:39:00.567Z,98771.59
2022-08-29T16:41:27.240Z,98773.66
2022-08-29T16:43:55.433Z,98779.13
2022-08-29T16:46:26.530Z,98774.16
2022-08-29T16:48:58.247Z,98775.78
2022-08-29T16:51:27.057Z,98771.13
2022-08-29T16:53:53.848Z,98770.59
2022-08-29T16:56:21.720Z,98780.13
2022-08-29T16:58:48.778Z,98772.31
2022-08-29T17:01:22.679Z,98768.06
2022-08-29T17:03:49.169Z,98768.66
2022-08-29T17:06:16.908Z,98768.84
2022-08-29T17:08:43.498Z,98769.69
2022-08-29T17:11:10.313Z,98765.22
2022-08-29T17:13:39.384Z,98767.53
2022-08-29T17:16:08.655Z,98767.59
2022-08-29T17:18:37.277Z,98774.19
2022-08-29T17:21:06.457Z,98770.41
2022-08-29T17:23:34.772Z,98772.09
2022-08-29T17:26:03.361Z,98771.34
2022-08-29T17:28:30.181Z,98772.13
2022-08-29T17:30:57.241Z,98771.19
2022-08-29T17:33:24.446Z,98771.84
2022-08-29T17:35:52.859Z,98767.66
2022-08-29T17:38:19.693Z,98766.94
2022-08-29T17:40:46.754Z,98764.13
2022-08-29T17:43:18.690Z,98770.84
2022-08-29T17:45:46.517Z,98768.00
2022-08-29T17:48:13.319Z,98762.97
2022-08-29T17:50:40.241Z,98758.75
2022-08-29T17:53:08.441Z,98756.66
2022-08-29T17:55:35.179Z,98763.94
2022-08-29T17:58:01.706Z,98767.31
2022-08-29T18:00:28.746Z,98765.28
2022-08-29T18:02:55.251Z,98774.16
2022-08-29T18:05:21.677Z,98772.06
2022-08-29T18:07:48.563Z,98776.50
2022-08-29T18:10:16.730Z,98778.44
2022-08-29T18:12:43.101Z,98780.97
2022-08-29T18:15:13.809Z,98778.38
2022-08-29T18:17:41.129Z,98778.97
2022-08-29T18:20:10.432Z,98776.31
2022-08-29T18:22:37.749Z,98787.50
2022-08-29T18:25:05.749Z,98785.66
2022-08-29T18:27:32.671Z,98785.19
2022-08-29T18:29:59.873Z,98795.00
2022-08-29T18:32:28.474Z,98803.78
2022-08-29T18:35:04.515Z,98792.34
2022-08-29T18:37:31.094Z,98798.88
2022-08-29T18:39:57.964Z,98795.66
2022-08-29T18:42:39.442Z,98798.91
2022-08-29T18:45:07.476Z,98806.28
2022-08-29T18:47:33.985Z,98811.44
2022-08-29T18:50:00.399Z,98811.16
2022-08-29T18:52:27.091Z,98811.19
2022-08-29T18:54:54.543Z,98816.88
2022-08-29T18:57:20.998Z,98823.69
2022-08-29T18:59:47.426Z,98822.06
2022-08-29T19:02:14.415Z,98824.25
2022-08-29T19:04:41.434Z,98824.22
2022-08-29T19:07:09.619Z,98823.16
2022-08-29T19:09:36.111Z,98824.50
2022-08-29T19:12:02.968Z,98822.88
2022-08-29T19:14:29.932Z,98834.28
2022-08-29T19:17:00.292Z,98841.88
2022-08-29T19:19:27.041Z,98836.38
2022-08-29T19:21:53.759Z,98841.28
2022-08-29T19:24:20.308Z,98842.56
2022-08-29T19:26:47.031Z,98850.09
2022-08-29T19:29:13.410Z,98845.72
2022-08-29T19:31:41.491Z,98845.41
2022-08-29T19:34:08.099Z,98846.78
2022-08-29T19:36:34.544Z,98844.84
2022-08-29T19:39:01.026Z,98851.91
2022-08-29T19:41:28.207Z,98838.28
2022-08-29T19:43:55.115Z,98852.94
2022-08-29T19:46:23.973Z,98855.59
2022-08-29T19:48:52.413Z,98844.72
2022-08-29T19:51:24.541Z,98853.63
2022-08-29T19:53:52.437Z,98854.72
2022-08-29T19:56:19.971Z,98861.44
2022-08-29T19:58:49.495Z,98858.16
2022-08-29T20:01:16.760Z,98863.00
2022-08-29T20:03:45.525Z,98869.47
2022-08-29T20:06:12.266Z,98861.53
2022-08-29T20:08:41.930Z,98862.81
2022-08-29T20:11:16.149Z,98865.50
2022-08-29T20:13:50.067Z,98872.50
2022-08-29T20:16:19.468Z,98872.72
2022-08-29T20:18:47.897Z,98871.31
2022-08-29T20:21:16.809Z,98872.34
2022-08-29T20:23:49.483Z,98879.28
2022-08-29T20:26:18.791Z,98874.22
2022-08-29T20:28:47.275Z,98879.66
2022-08-29T20:31:13.769Z,98879.06
2022-08-29T20:33:41.441Z,98880.06
2022-08-29T20:36:08.566Z,98885.09
2022-08-29T20:38:35.050Z,98879.06
2022-08-29T20:41:01.533Z,98890.31
2022-08-29T20:43:28.388Z,98886.47
2022-08-29T20:45:58.284Z,98887.53
2022-08-29T20:48:31.142Z,98885.09
2022-08-29T20:51:00.393Z,98889.91
2022-08-29T20:53:32.026Z,98886.63
2022-08-29T20:56:00.526Z,98893.69
2022-08-29T20:58:28.947Z,98883.69
2022-08-29T21:00:59.948Z,98887.22
2022-08-29T21:03:26.529Z,98883.91
2022-08-29T21:05:53.070Z,98886.09
2022-08-29T21:08:22.338Z,98889.59
2022-08-29T21:10:51.297Z,98897.91
2022-08-29T21:13:19.029Z,98898.81
2022-08-29T21:15:46.608Z,98898.41
2022-08-29T21:18:16.289Z,98903.78
2022-08-29T21:20:54.343Z,98902.88
2022-08-29T21:23:23.599Z,98906.31
2022-08-29T21:25:55.384Z,98909.78
2022-08-29T21:28:24.095Z,98914.59
2022-08-29T21:30:51.965Z,98919.50
2022-08-29T21:33:19.360Z,98917.22
2022-08-29T21:35:46.029Z,98925.09
2022-08-29T21:38:16.550Z,98929.19
2022-08-29T21:40:51.106Z,98925.09
2022-08-29T21:43:19.171Z,98928.81
2022-08-29T21:45:45.615Z,98933.03
2022-08-29T21:48:12.097Z,98918.13
2022-08-29T21:50:38.816Z,98925.00
2022-08-29T21:53:05.692Z,98924.84
2022-08-29T21:55:32.453Z,98929.44
2022-08-29T21:58:00.360Z,98927.09
2022-08-29T22:00:32.647Z,98923.88
2022-08-29T22:03:01.801Z,98928.47
2022-08-29T22:05:30.890Z,98926.59
2022-08-29T22:07:58.083Z,98921.00
2022-08-29T22:10:30.152Z,98928.38
2022-08-29T22:12:58.795Z,98927.19
2022-08-29T22:15:26.077Z,98925.19
2022-08-29T22:17:52.567Z,98923.03
2022-08-29T22:20:19.836Z,98929.09
2022-08-29T22:22:46.688Z,98917.81
2022-08-29T22:25:13.436Z,98916.81
2022-08-29T22:27:40.423Z,98925.09
2022-08-29T22:30:17.378Z,98921.19
2022-08-29T22:32:44.010Z,98922.75
2022-08-29T22:35:19.390Z,98921.34
2022-08-29T22:37:47.543Z,98923.50
2022-08-29T22:40:17.128Z,98919.06
2022-08-29T22:42:44.561Z,98925.75
2022-08-29T22:45:13.187Z,98921.38
2022-08-29T22:47:42.124Z,98915.44
2022-08-29T22:50:21.727Z,98917.78
2022-08-29T22:52:55.462Z,98910.16
2022-08-29T22:57:48.389Z,98910.31
2022-08-29T23:00:17.762Z,98922.16
2022-08-29T23:02:44.271Z,98913.72
2022-08-29T23:05:11.024Z,98914.81
2022-08-29T23:07:38.524Z,98920.09
2022-08-29T23:10:07.255Z,98917.31
2022-08-29T23:12:34.678Z,98919.28
2022-08-29T23:15:01.097Z,98918.72
2022-08-29T23:17:27.450Z,98918.59
2022-08-29T23:19:54.408Z,98914.38
2022-08-29T23:22:20.784Z,98916.03
2022-08-29T23:24:53.960Z,98913.88
2022-08-29T23:27:29.428Z,98919.03
2022-08-29T23:29:56.203Z,98925.28
2022-08-29T23:32:22.727Z,98923.88
2022-08-29T23:34:49.214Z,98912.28
2022-08-29T23:37:17.982Z,98911.69
2022-08-29T23:39:44.538Z,98930.31
2022-08-29T23:42:10.894Z,98920.00
2022-08-29T23:44:37.429Z,98923.16
2022-08-29T23:47:04.567Z,98929.28
2022-08-29T23:49:31.421Z,98927.13
2022-08-29T23:51:57.901Z,98925.03
2022-08-29T23:54:26.000Z,98933.13
2022-08-29T23:56:52.706Z,98930.22
2022-08-29T23:59:19.089Z,98926.66
